createdAt,value
2022-10-20T00:02:11.414Z,4.72
2022-10-20T00:09:13.403Z,4.55
2022-10-20T00:16:15.467Z,3.45
2022-10-20T00:23:17.388Z,3.80
2022-10-20T00:30:21.418Z,3.67
2022-10-20T00:37:25.631Z,4.10
2022-10-20T00:44:46.102Z,3.53
2022-10-20T00:51:48.648Z,3.95
2022-10-20T00:58:50.893Z,4.40
2022-10-20T01:05:52.598Z,3.85
2022-10-20T01:12:54.471Z,4.10
2022-10-20T01:20:14.749Z,3.20
2022-10-20T01:27:36.796Z,3.97
2022-10-20T01:34:46.922Z,4.50
2022-10-20T01:41:56.087Z,4.28
2022-10-20T01:48:58.843Z,4.85
2022-10-20T01:56:01.343Z,4.57
2022-10-20T02:03:08.989Z,4.75
2022-10-20T02:10:17.562Z,5.70
2022-10-20T02:17:20.232Z,5.93
2022-10-20T02:24:23.392Z,5.55
2022-10-20T02:31:25.486Z,7.00
2022-10-20T02:38:27.346Z,6.13
2022-10-20T02:45:29.253Z,6.85
2022-10-20T02:52:31.130Z,6.45
2022-10-20T02:59:33.771Z,7.38
2022-10-20T03:06:35.879Z,5.28
2022-10-20T03:13:37.656Z,5.80
2022-10-20T03:20:39.596Z,4.90
2022-10-20T03:27:41.463Z,6.05
2022-10-20T03:34:43.358Z,5.38
2022-10-20T03:41:45.312Z,5.18
2022-10-20T03:48:47.211Z,4.32
2022-10-20T03:55:49.203Z,4.45
2022-10-20T04:02:51.278Z,4.18
2022-10-20T04:09:52.996Z,3.85
2022-10-20T04:16:54.944Z,4.28
2022-10-20T04:23:56.793Z,4.60
2022-10-20T04:31:00.003Z,4.25
2022-10-20T04:38:01.930Z,4.70
2022-10-20T04:45:04.140Z,4.10
2022-10-20T04:52:06.092Z,4.20
2022-10-20T04:59:11.007Z,5.32
2022-10-20T05:06:17.024Z,5.07
2022-10-20T05:13:18.855Z,4.30
2022-10-20T05:20:20.877Z,4.00
2022-10-20T05:27:22.837Z,4.00
2022-10-20T05:34:25.273Z,3.80
2022-10-20T05:41:33.513Z,4.38
2022-10-20T05:48:42.795Z,4.28
2022-10-20T05:55:44.920Z,5.05
2022-10-20T06:02:46.801Z,4.97
2022-10-20T06:09:48.543Z,5.03
2022-10-20T06:16:51.111Z,4.50
2022-10-20T06:23:53.815Z,4.50
2022-10-20T06:30:55.561Z,4.53
2022-10-20T06:37:57.430Z,4.60
2022-10-20T06:44:59.678Z,4.85
2022-10-20T06:52:01.549Z,4.72
2022-10-20T06:59:03.996Z,4.60
2022-10-20T07:06:07.194Z,5.40
2022-10-20T07:13:09.062Z,4.80
2022-10-20T07:20:10.971Z,4.78
2022-10-20T07:27:12.870Z,5.55
2022-10-20T07:34:30.735Z,4.72
2022-10-20T07:41:33.126Z,4.38
2022-10-20T07:48:35.133Z,5.20
2022-10-20T07:55:38.924Z,4.38
2022-10-20T08:02:41.281Z,4.38
2022-10-20T08:16:46.730Z,6.60
2022-10-20T08:23:49.420Z,5.72
2022-10-20T08:30:51.598Z,4.47
2022-10-20T08:37:53.451Z,4.03
2022-10-20T08:44:58.776Z,4.22
2022-10-20T08:52:00.492Z,4.15
2022-10-20T08:59:03.636Z,3.95
2022-10-20T09:06:13.101Z,3.35
2022-10-20T09:13:23.850Z,3.13
2022-10-20T09:20:28.496Z,3.45
2022-10-20T09:27:34.125Z,2.50
2022-10-20T09:34:36.288Z,2.25
2022-10-20T09:41:38.184Z,2.20
2022-10-20T09:48:47.979Z,2.15
2022-10-20T09:55:51.210Z,2.75
2022-10-20T10:03:10.286Z,2.35
2022-10-20T10:10:17.810Z,2.40
2022-10-20T10:17:30.116Z,2.28
2022-10-20T10:24:38.011Z,1.95
2022-10-20T10:31:46.105Z,2.20
2022-10-20T10:38:48.014Z,2.03
2022-10-20T10:45:49.735Z,1.85
2022-10-20T10:53:11.107Z,1.90
2022-10-20T11:00:20.272Z,1.92
2022-10-20T11:07:40.440Z,1.60
2022-10-20T11:15:05.214Z,1.70
2022-10-20T11:22:17.238Z,1.80
2022-10-20T11:29:37.881Z,1.83
2022-10-20T11:36:43.550Z,1.67
2022-10-20T11:43:48.406Z,1.70
2022-10-20T11:50:59.086Z,1.85
2022-10-20T11:58:11.029Z,1.77
2022-10-20T12:05:24.584Z,1.95
2022-10-20T12:12:33.214Z,1.92
2022-10-20T12:19:35.599Z,1.97
2022-10-20T12:26:42.378Z,1.90
2022-10-20T12:33:55.561Z,1.85
2022-10-20T12:40:58.566Z,2.00
2022-10-20T12:48:02.459Z,2.20
2022-10-20T12:55:08.358Z,2.20
2022-10-20T13:02:10.170Z,2.00
2022-10-20T13:09:17.586Z,2.50
2022-10-20T13:16:21.299Z,2.70
2022-10-20T13:23:43.416Z,2.40
2022-10-20T13:31:00.458Z,2.30
2022-10-20T13:38:05.401Z,2.00
2022-10-20T13:45:07.649Z,1.85
2022-10-20T13:52:17.345Z,1.88
2022-10-20T14:06:35.930Z,2.90
2022-10-20T14:13:38.094Z,2.30
2022-10-20T14:20:42.094Z,1.98
2022-10-20T14:27:44.640Z,2.13
2022-10-20T14:34:57.248Z,2.10
2022-10-20T14:42:00.529Z,7.38
2022-10-20T14:49:02.938Z,2.65
2022-10-20T14:56:22.932Z,2.70
2022-10-20T15:03:25.493Z,3.03
2022-10-20T15:10:32.163Z,5.28
2022-10-20T15:17:39.847Z,4.97
2022-10-20T15:24:42.814Z,4.95
2022-10-20T15:31:46.039Z,8.02
2022-10-20T15:38:51.253Z,11.10
2022-10-20T15:45:55.349Z,11.98
2022-10-20T15:52:58.026Z,12.98
2022-10-20T16:00:01.675Z,21.33
2022-10-20T16:07:04.938Z,22.42
2022-10-20T16:14:06.939Z,27.25
2022-10-20T16:21:10.106Z,15.50
2022-10-20T16:28:13.856Z,18.60
2022-10-20T16:35:15.978Z,24.33
2022-10-20T16:42:17.698Z,21.85
2022-10-20T16:49:19.479Z,20.65
2022-10-20T16:56:21.477Z,63.70
2022-10-20T17:03:23.404Z,66.60
2022-10-20T17:10:25.776Z,63.13
2022-10-20T17:17:28.093Z,27.50
2022-10-20T17:24:30.471Z,38.13
2022-10-20T17:31:33.861Z,30.58
2022-10-20T17:38:35.896Z,33.90
2022-10-20T17:45:38.397Z,37.33
2022-10-20T17:52:40.706Z,37.13
2022-10-20T17:59:52.884Z,35.42
2022-10-20T18:06:57.906Z,53.72
2022-10-20T18:14:00.807Z,34.33
2022-10-20T18:21:04.647Z,25.90
2022-10-20T18:28:08.754Z,23.55
2022-10-20T18:35:10.866Z,21.83
2022-10-20T18:42:13.184Z,19.75
2022-10-20T18:49:16.468Z,19.08
2022-10-20T18:56:19.633Z,20.45
2022-10-20T19:03:22.489Z,17.17
2022-10-20T19:10:27.838Z,18.27
2022-10-20T19:17:30.539Z,15.85
2022-10-20T19:24:33.165Z,16.02
2022-10-20T19:31:42.473Z,16.45
2022-10-20T19:38:44.923Z,16.95
2022-10-20T19:45:52.858Z,16.80
2022-10-20T19:52:58.780Z,17.45
2022-10-20T20:00:04.834Z,17.65
2022-10-20T20:07:08.822Z,18.40
2022-10-20T20:14:15.735Z,19.17
2022-10-20T20:21:18.439Z,15.55
2022-10-20T20:28:20.179Z,20.52
2022-10-20T20:35:22.165Z,18.25
2022-10-20T20:42:24.058Z,16.10
2022-10-20T20:49:25.907Z,15.77
2022-10-20T20:56:27.703Z,17.35
2022-10-20T21:03:29.631Z,15.75
2022-10-20T21:10:31.543Z,13.57
2022-10-20T21:17:33.328Z,13.52
2022-10-20T21:24:35.152Z,11.48
2022-10-20T21:31:37.063Z,13.32
2022-10-20T21:38:39.352Z,10.65
2022-10-20T21:45:41.215Z,10.98
2022-10-20T21:52:43.075Z,11.30
2022-10-20T21:59:50.631Z,9.93
2022-10-20T22:06:53.134Z,10.18
2022-10-20T22:13:55.229Z,8.25
2022-10-20T22:20:57.027Z,7.85
2022-10-20T22:27:58.962Z,6.70
2022-10-20T22:35:00.922Z,7.20
2022-10-20T22:42:02.771Z,6.95
2022-10-20T22:49:04.552Z,7.70
2022-10-20T22:56:06.942Z,7.25
2022-10-20T23:03:11.246Z,7.10
2022-10-20T23:10:13.039Z,6.30
2022-10-20T23:17:14.877Z,6.78
2022-10-20T23:24:17.226Z,6.35
2022-10-20T23:31:20.754Z,7.15
2022-10-20T23:38:22.513Z,6.32
2022-10-20T23:45:24.446Z,6.10
2022-10-20T23:52:26.266Z,6.30
2022-10-20T23:59:28.277Z,6.82
